sensor_id;sensor_type;location;lat;lon;timestamp;P1;durP1;ratioP1;P2;durP2;ratioP2
10991;SDS011;5549;47.028;15.514;2022-08-19T00:02:05;2.27;;;1.40;;
10991;SDS011;5549;47.028;15.514;2022-08-19T00:04:36;2.53;;;1.70;;
10991;SDS011;5549;47.028;15.514;2022-08-19T00:07:07;1.77;;;1.30;;
10991;SDS011;5549;47.028;15.514;2022-08-19T00:09:35;6.67;;;1.80;;
10991;SDS011;5549;47.028;15.514;2022-08-19T00:12:03;1.40;;;1.30;;
10991;SDS011;5549;47.028;15.514;2022-08-19T00:14:36;3.47;;;1.40;;
10991;SDS011;5549;47.028;15.514;2022-08-19T00:17:06;1.40;;;1.30;;
10991;SDS011;5549;47.028;15.514;2022-08-19T00:19:38;3.60;;;1.47;;
10991;SDS011;5549;47.028;15.514;2022-08-19T00:22:08;2.77;;;1.67;;
10991;SDS011;5549;47.028;15.514;2022-08-19T00:24:38;2.40;;;1.70;;
10991;SDS011;5549;47.028;15.514;2022-08-19T00:27:08;2.47;;;1.43;;
10991;SDS011;5549;47.028;15.514;2022-08-19T00:29:39;2.50;;;1.60;;
10991;SDS011;5549;47.028;15.514;2022-08-19T00:32:07;3.07;;;1.77;;
10991;SDS011;5549;47.028;15.514;2022-08-19T00:34:37;1.77;;;1.57;;
10991;SDS011;5549;47.028;15.514;2022-08-19T00:37:05;2.53;;;1.70;;
10991;SDS011;5549;47.028;15.514;2022-08-19T00:39:33;1.97;;;1.57;;
10991;SDS011;5549;47.028;15.514;2022-08-19T00:42:03;1.37;;;1.27;;
10991;SDS011;5549;47.028;15.514;2022-08-19T00:44:35;2.67;;;1.50;;
10991;SDS011;5549;47.028;15.514;2022-08-19T00:47:03;4.17;;;1.57;;
10991;SDS011;5549;47.028;15.514;2022-08-19T00:49:34;2.37;;;1.63;;
10991;SDS011;5549;47.028;15.514;2022-08-19T00:52:07;2.30;;;1.57;;
10991;SDS011;5549;47.028;15.514;2022-08-19T00:54:38;3.37;;;1.30;;
10991;SDS011;5549;47.028;15.514;2022-08-19T00:57:09;4.30;;;1.77;;
10991;SDS011;5549;47.028;15.514;2022-08-19T00:59:46;2.00;;;1.20;;
10991;SDS011;5549;47.028;15.514;2022-08-19T01:02:18;1.50;;;1.37;;
10991;SDS011;5549;47.028;15.514;2022-08-19T01:04:48;2.33;;;1.57;;
10991;SDS011;5549;47.028;15.514;2022-08-19T01:07:16;2.13;;;1.70;;
10991;SDS011;5549;47.028;15.514;2022-08-19T01:09:46;1.67;;;1.50;;
10991;SDS011;5549;47.028;15.514;2022-08-19T01:12:13;1.53;;;1.43;;
10991;SDS011;5549;47.028;15.514;2022-08-19T01:14:45;1.67;;;1.57;;
10991;SDS011;5549;47.028;15.514;2022-08-19T01:17:15;3.40;;;1.87;;
10991;SDS011;5549;47.028;15.514;2022-08-19T01:19:43;3.23;;;1.77;;
10991;SDS011;5549;47.028;15.514;2022-08-19T01:22:16;2.70;;;1.70;;
10991;SDS011;5549;47.028;15.514;2022-08-19T01:24:58;1.83;;;1.73;;
10991;SDS011;5549;47.028;15.514;2022-08-19T01:27:27;1.77;;;1.67;;
10991;SDS011;5549;47.028;15.514;2022-08-19T01:30:08;3.00;;;1.83;;
10991;SDS011;5549;47.028;15.514;2022-08-19T01:32:42;5.30;;;2.00;;
10991;SDS011;5549;47.028;15.514;2022-08-19T01:35:11;2.70;;;2.20;;
10991;SDS011;5549;47.028;15.514;2022-08-19T01:37:46;3.43;;;2.40;;
10991;SDS011;5549;47.028;15.514;2022-08-19T01:40:21;2.63;;;2.47;;
10991;SDS011;5549;47.028;15.514;2022-08-19T01:42:55;2.30;;;2.10;;
10991;SDS011;5549;47.028;15.514;2022-08-19T01:45:25;4.23;;;2.53;;
10991;SDS011;5549;47.028;15.514;2022-08-19T01:47:55;2.93;;;2.47;;
10991;SDS011;5549;47.028;15.514;2022-08-19T01:50:25;3.60;;;2.60;;
10991;SDS011;5549;47.028;15.514;2022-08-19T01:52:57;4.77;;;2.93;;
10991;SDS011;5549;47.028;15.514;2022-08-19T01:55:29;3.77;;;2.57;;
10991;SDS011;5549;47.028;15.514;2022-08-19T01:57:58;2.40;;;2.23;;
10991;SDS011;5549;47.028;15.514;2022-08-19T02:00:31;3.03;;;2.70;;
10991;SDS011;5549;47.028;15.514;2022-08-19T02:03:02;2.87;;;2.67;;
10991;SDS011;5549;47.028;15.514;2022-08-19T02:05:30;5.73;;;2.53;;
10991;SDS011;5549;47.028;15.514;2022-08-19T02:08:01;3.80;;;2.53;;
10991;SDS011;5549;47.028;15.514;2022-08-19T02:10:31;4.37;;;2.97;;
10991;SDS011;5549;47.028;15.514;2022-08-19T02:13:01;2.40;;;2.20;;
10991;SDS011;5549;47.028;15.514;2022-08-19T02:15:29;5.90;;;1.97;;
10991;SDS011;5549;47.028;15.514;2022-08-19T02:18:01;2.60;;;2.37;;
10991;SDS011;5549;47.028;15.514;2022-08-19T02:20:34;2.63;;;2.43;;
10991;SDS011;5549;47.028;15.514;2022-08-19T02:23:03;2.67;;;2.30;;
10991;SDS011;5549;47.028;15.514;2022-08-19T02:25:32;2.37;;;2.17;;
10991;SDS011;5549;47.028;15.514;2022-08-19T02:28:01;2.00;;;1.77;;
10991;SDS011;5549;47.028;15.514;2022-08-19T02:30:30;2.50;;;2.03;;
10991;SDS011;5549;47.028;15.514;2022-08-19T02:32:59;3.47;;;2.27;;
10991;SDS011;5549;47.028;15.514;2022-08-19T02:35:28;3.83;;;2.03;;
10991;SDS011;5549;47.028;15.514;2022-08-19T02:38:01;1.87;;;1.77;;
10991;SDS011;5549;47.028;15.514;2022-08-19T02:40:48;3.23;;;2.40;;
10991;SDS011;5549;47.028;15.514;2022-08-19T02:43:16;4.57;;;2.40;;
10991;SDS011;5549;47.028;15.514;2022-08-19T02:45:50;1.83;;;1.73;;
10991;SDS011;5549;47.028;15.514;2022-08-19T02:48:21;3.53;;;2.43;;
10991;SDS011;5549;47.028;15.514;2022-08-19T02:50:54;2.50;;;2.30;;
10991;SDS011;5549;47.028;15.514;2022-08-19T02:53:26;3.80;;;2.20;;
10991;SDS011;5549;47.028;15.514;2022-08-19T02:55:55;3.37;;;2.30;;
10991;SDS011;5549;47.028;15.514;2022-08-19T02:58:22;2.93;;;2.37;;
10991;SDS011;5549;47.028;15.514;2022-08-19T03:00:53;4.07;;;2.53;;
10991;SDS011;5549;47.028;15.514;2022-08-19T03:03:23;2.27;;;2.07;;
10991;SDS011;5549;47.028;15.514;2022-08-19T03:06:05;3.43;;;1.97;;
10991;SDS011;5549;47.028;15.514;2022-08-19T03:08:44;3.67;;;1.97;;
10991;SDS011;5549;47.028;15.514;2022-08-19T03:11:30;2.77;;;2.30;;
10991;SDS011;5549;47.028;15.514;2022-08-19T03:13:59;4.80;;;2.20;;
10991;SDS011;5549;47.028;15.514;2022-08-19T03:16:31;2.67;;;2.33;;
10991;SDS011;5549;47.028;15.514;2022-08-19T03:19:07;2.30;;;1.90;;
10991;SDS011;5549;47.028;15.514;2022-08-19T03:21:35;2.93;;;2.10;;
10991;SDS011;5549;47.028;15.514;2022-08-19T03:24:08;4.53;;;2.33;;
10991;SDS011;5549;47.028;15.514;2022-08-19T03:26:38;5.13;;;2.33;;
10991;SDS011;5549;47.028;15.514;2022-08-19T03:29:07;2.90;;;2.47;;
10991;SDS011;5549;47.028;15.514;2022-08-19T03:31:37;2.67;;;1.43;;
10991;SDS011;5549;47.028;15.514;2022-08-19T03:34:09;1.77;;;1.67;;
10991;SDS011;5549;47.028;15.514;2022-08-19T03:36:38;2.27;;;2.07;;
10991;SDS011;5549;47.028;15.514;2022-08-19T03:39:11;2.20;;;1.87;;
10991;SDS011;5549;47.028;15.514;2022-08-19T03:41:40;2.27;;;2.00;;
10991;SDS011;5549;47.028;15.514;2022-08-19T03:44:12;2.37;;;2.20;;
10991;SDS011;5549;47.028;15.514;2022-08-19T03:46:44;4.83;;;2.13;;
10991;SDS011;5549;47.028;15.514;2022-08-19T03:49:16;2.83;;;2.03;;
10991;SDS011;5549;47.028;15.514;2022-08-19T03:51:47;3.77;;;2.20;;
10991;SDS011;5549;47.028;15.514;2022-08-19T03:54:18;3.30;;;1.83;;
10991;SDS011;5549;47.028;15.514;2022-08-19T03:56:52;2.60;;;1.50;;
10991;SDS011;5549;47.028;15.514;2022-08-19T03:59:22;3.10;;;2.00;;
10991;SDS011;5549;47.028;15.514;2022-08-19T04:01:53;2.93;;;2.17;;
10991;SDS011;5549;47.028;15.514;2022-08-19T04:04:22;3.77;;;2.00;;
10991;SDS011;5549;47.028;15.514;2022-08-19T04:06:51;1.87;;;1.77;;
10991;SDS011;5549;47.028;15.514;2022-08-19T04:09:22;2.60;;;2.10;;
10991;SDS011;5549;47.028;15.514;2022-08-19T04:11:54;2.50;;;2.27;;
10991;SDS011;5549;47.028;15.514;2022-08-19T04:14:26;2.10;;;1.97;;
10991;SDS011;5549;47.028;15.514;2022-08-19T04:16:59;2.13;;;2.00;;
10991;SDS011;5549;47.028;15.514;2022-08-19T04:19:30;7.50;;;2.47;;
10991;SDS011;5549;47.028;15.514;2022-08-19T04:22:02;3.67;;;2.00;;
10991;SDS011;5549;47.028;15.514;2022-08-19T04:24:32;4.70;;;2.47;;
10991;SDS011;5549;47.028;15.514;2022-08-19T04:27:01;2.40;;;2.20;;
10991;SDS011;5549;47.028;15.514;2022-08-19T04:29:33;2.40;;;2.20;;
10991;SDS011;5549;47.028;15.514;2022-08-19T04:32:03;2.67;;;2.47;;
10991;SDS011;5549;47.028;15.514;2022-08-19T04:34:34;2.73;;;2.47;;
10991;SDS011;5549;47.028;15.514;2022-08-19T04:37:05;6.73;;;2.60;;
10991;SDS011;5549;47.028;15.514;2022-08-19T04:39:42;3.17;;;2.27;;
10991;SDS011;5549;47.028;15.514;2022-08-19T04:42:29;3.80;;;2.50;;
10991;SDS011;5549;47.028;15.514;2022-08-19T04:45:10;3.87;;;2.27;;
10991;SDS011;5549;47.028;15.514;2022-08-19T04:47:40;3.93;;;1.80;;
10991;SDS011;5549;47.028;15.514;2022-08-19T04:50:15;3.60;;;2.10;;
10991;SDS011;5549;47.028;15.514;2022-08-19T04:52:44;2.53;;;2.23;;
10991;SDS011;5549;47.028;15.514;2022-08-19T04:55:13;3.33;;;2.00;;
10991;SDS011;5549;47.028;15.514;2022-08-19T04:57:41;3.13;;;2.07;;
10991;SDS011;5549;47.028;15.514;2022-08-19T05:00:09;4.00;;;2.30;;
10991;SDS011;5549;47.028;15.514;2022-08-19T05:02:39;3.77;;;1.80;;
10991;SDS011;5549;47.028;15.514;2022-08-19T05:05:07;3.23;;;2.03;;
10991;SDS011;5549;47.028;15.514;2022-08-19T05:07:37;7.67;;;2.27;;
10991;SDS011;5549;47.028;15.514;2022-08-19T05:10:06;2.50;;;2.27;;
10991;SDS011;5549;47.028;15.514;2022-08-19T05:12:38;3.27;;;2.00;;
10991;SDS011;5549;47.028;15.514;2022-08-19T05:15:07;3.63;;;2.00;;
10991;SDS011;5549;47.028;15.514;2022-08-19T05:17:38;2.07;;;1.93;;
10991;SDS011;5549;47.028;15.514;2022-08-19T05:20:29;3.27;;;2.00;;
10991;SDS011;5549;47.028;15.514;2022-08-19T05:23:14;2.33;;;1.70;;
10991;SDS011;5549;47.028;15.514;2022-08-19T05:25:44;3.97;;;1.60;;
10991;SDS011;5549;47.028;15.514;2022-08-19T05:28:13;1.93;;;1.60;;
10991;SDS011;5549;47.028;15.514;2022-08-19T05:30:43;4.03;;;1.70;;
10991;SDS011;5549;47.028;15.514;2022-08-19T05:33:11;2.73;;;1.77;;
10991;SDS011;5549;47.028;15.514;2022-08-19T05:35:39;2.33;;;1.70;;
10991;SDS011;5549;47.028;15.514;2022-08-19T05:38:10;1.97;;;1.80;;
10991;SDS011;5549;47.028;15.514;2022-08-19T05:40:40;4.07;;;1.93;;
10991;SDS011;5549;47.028;15.514;2022-08-19T05:43:12;3.20;;;1.50;;
10991;SDS011;5549;47.028;15.514;2022-08-19T05:45:44;2.77;;;1.80;;
10991;SDS011;5549;47.028;15.514;2022-08-19T05:48:13;2.33;;;1.80;;
10991;SDS011;5549;47.028;15.514;2022-08-19T05:50:44;3.27;;;1.77;;
10991;SDS011;5549;47.028;15.514;2022-08-19T05:53:15;3.23;;;2.13;;
10991;SDS011;5549;47.028;15.514;2022-08-19T05:55:43;1.53;;;1.43;;
10991;SDS011;5549;47.028;15.514;2022-08-19T05:58:15;5.83;;;1.87;;
10991;SDS011;5549;47.028;15.514;2022-08-19T06:00:43;1.60;;;1.50;;
10991;SDS011;5549;47.028;15.514;2022-08-19T06:03:13;2.13;;;1.60;;
10991;SDS011;5549;47.028;15.514;2022-08-19T06:05:41;2.43;;;1.83;;
10991;SDS011;5549;47.028;15.514;2022-08-19T06:08:08;2.03;;;1.40;;
10991;SDS011;5549;47.028;15.514;2022-08-19T06:10:38;2.57;;;1.60;;
10991;SDS011;5549;47.028;15.514;2022-08-19T06:13:08;2.33;;;1.80;;
10991;SDS011;5549;47.028;15.514;2022-08-19T06:15:38;1.73;;;1.50;;
10991;SDS011;5549;47.028;15.514;2022-08-19T06:18:12;1.60;;;1.50;;
10991;SDS011;5549;47.028;15.514;2022-08-19T06:20:44;4.10;;;1.77;;
10991;SDS011;5549;47.028;15.514;2022-08-19T06:23:11;2.97;;;1.90;;
10991;SDS011;5549;47.028;15.514;2022-08-19T06:25:39;2.90;;;1.40;;
10991;SDS011;5549;47.028;15.514;2022-08-19T06:28:07;5.00;;;1.70;;
10991;SDS011;5549;47.028;15.514;2022-08-19T06:30:38;3.83;;;2.10;;
10991;SDS011;5549;47.028;15.514;2022-08-19T06:33:08;2.77;;;1.63;;
10991;SDS011;5549;47.028;15.514;2022-08-19T06:35:38;4.67;;;1.60;;
10991;SDS011;5549;47.028;15.514;2022-08-19T06:38:09;2.97;;;1.90;;
10991;SDS011;5549;47.028;15.514;2022-08-19T06:40:37;4.77;;;1.80;;
10991;SDS011;5549;47.028;15.514;2022-08-19T06:43:07;2.37;;;1.83;;
10991;SDS011;5549;47.028;15.514;2022-08-19T06:45:39;1.90;;;1.43;;
10991;SDS011;5549;47.028;15.514;2022-08-19T06:48:07;2.13;;;1.57;;
10991;SDS011;5549;47.028;15.514;2022-08-19T06:50:34;1.67;;;1.63;;
10991;SDS011;5549;47.028;15.514;2022-08-19T06:53:05;1.70;;;1.60;;
10991;SDS011;5549;47.028;15.514;2022-08-19T06:55:33;2.03;;;1.83;;
10991;SDS011;5549;47.028;15.514;2022-08-19T06:58:04;4.33;;;2.00;;
10991;SDS011;5549;47.028;15.514;2022-08-19T07:00:33;2.30;;;2.00;;
10991;SDS011;5549;47.028;15.514;2022-08-19T07:03:02;4.23;;;2.10;;
10991;SDS011;5549;47.028;15.514;2022-08-19T07:05:32;2.00;;;1.90;;
10991;SDS011;5549;47.028;15.514;2022-08-19T07:08:05;1.80;;;1.37;;
10991;SDS011;5549;47.028;15.514;2022-08-19T07:10:33;1.90;;;1.70;;
10991;SDS011;5549;47.028;15.514;2022-08-19T07:13:05;2.80;;;1.80;;
10991;SDS011;5549;47.028;15.514;2022-08-19T07:15:34;3.07;;;1.63;;
10991;SDS011;5549;47.028;15.514;2022-08-19T07:18:05;5.80;;;1.80;;
10991;SDS011;5549;47.028;15.514;2022-08-19T07:20:33;3.77;;;2.00;;
10991;SDS011;5549;47.028;15.514;2022-08-19T07:23:00;3.97;;;1.53;;
10991;SDS011;5549;47.028;15.514;2022-08-19T07:25:31;2.03;;;1.83;;
10991;SDS011;5549;47.028;15.514;2022-08-19T07:28:00;2.57;;;1.70;;
10991;SDS011;5549;47.028;15.514;2022-08-19T07:30:30;1.73;;;1.60;;
10991;SDS011;5549;47.028;15.514;2022-08-19T07:33:00;2.27;;;2.07;;
10991;SDS011;5549;47.028;15.514;2022-08-19T07:35:30;2.00;;;1.90;;
10991;SDS011;5549;47.028;15.514;2022-08-19T07:37:59;1.83;;;1.73;;
10991;SDS011;5549;47.028;15.514;2022-08-19T07:40:29;3.57;;;1.70;;
10991;SDS011;5549;47.028;15.514;2022-08-19T07:43:00;1.67;;;1.57;;
10991;SDS011;5549;47.028;15.514;2022-08-19T07:45:27;2.83;;;1.70;;
10991;SDS011;5549;47.028;15.514;2022-08-19T07:47:57;3.37;;;1.93;;
10991;SDS011;5549;47.028;15.514;2022-08-19T07:50:27;1.63;;;1.53;;
10991;SDS011;5549;47.028;15.514;2022-08-19T07:52:56;2.07;;;1.70;;
10991;SDS011;5549;47.028;15.514;2022-08-19T07:55:27;3.20;;;1.60;;
10991;SDS011;5549;47.028;15.514;2022-08-19T07:57:57;1.87;;;1.77;;
10991;SDS011;5549;47.028;15.514;2022-08-19T08:00:25;1.67;;;1.57;;
10991;SDS011;5549;47.028;15.514;2022-08-19T08:02:56;2.83;;;1.97;;
10991;SDS011;5549;47.028;15.514;2022-08-19T08:05:23;1.47;;;1.37;;
10991;SDS011;5549;47.028;15.514;2022-08-19T08:08:12;1.47;;;1.37;;
10991;SDS011;5549;47.028;15.514;2022-08-19T08:11:07;3.57;;;1.20;;
10991;SDS011;5549;47.028;15.514;2022-08-19T08:13:36;1.27;;;1.03;;
10991;SDS011;5549;47.028;15.514;2022-08-19T08:16:03;1.10;;;1.10;;
10991;SDS011;5549;47.028;15.514;2022-08-19T08:18:33;0.80;;;0.80;;
10991;SDS011;5549;47.028;15.514;2022-08-19T08:21:07;1.93;;;0.80;;
10991;SDS011;5549;47.028;15.514;2022-08-19T08:23:39;2.03;;;1.20;;
10991;SDS011;5549;47.028;15.514;2022-08-19T08:26:08;1.73;;;1.07;;
10991;SDS011;5549;47.028;15.514;2022-08-19T08:28:38;1.97;;;1.33;;
10991;SDS011;5549;47.028;15.514;2022-08-19T08:31:06;1.63;;;1.33;;
10991;SDS011;5549;47.028;15.514;2022-08-19T08:33:34;3.10;;;1.50;;
10991;SDS011;5549;47.028;15.514;2022-08-19T08:36:05;1.20;;;1.07;;
10991;SDS011;5549;47.028;15.514;2022-08-19T08:38:35;1.20;;;1.13;;
10991;SDS011;5549;47.028;15.514;2022-08-19T08:41:06;1.87;;;1.50;;
10991;SDS011;5549;47.028;15.514;2022-08-19T08:43:45;2.40;;;2.17;;
10991;SDS011;5549;47.028;15.514;2022-08-19T08:46:17;4.23;;;1.80;;
10991;SDS011;5549;47.028;15.514;2022-08-19T08:48:53;2.27;;;1.23;;
10991;SDS011;5549;47.028;15.514;2022-08-19T08:51:27;3.83;;;1.80;;
10991;SDS011;5549;47.028;15.514;2022-08-19T08:54:04;1.63;;;1.53;;
10991;SDS011;5549;47.028;15.514;2022-08-19T08:56:37;2.63;;;1.73;;
10991;SDS011;5549;47.028;15.514;2022-08-19T08:59:06;2.67;;;1.90;;
10991;SDS011;5549;47.028;15.514;2022-08-19T09:01:47;3.03;;;1.50;;
10991;SDS011;5549;47.028;15.514;2022-08-19T09:04:15;2.57;;;1.50;;
10991;SDS011;5549;47.028;15.514;2022-08-19T09:06:46;1.77;;;1.60;;
10991;SDS011;5549;47.028;15.514;2022-08-19T09:09:22;2.07;;;1.80;;
10991;SDS011;5549;47.028;15.514;2022-08-19T09:12:00;2.13;;;1.63;;
10991;SDS011;5549;47.028;15.514;2022-08-19T09:14:39;1.90;;;1.70;;
10991;SDS011;5549;47.028;15.514;2022-08-19T09:17:14;1.70;;;1.60;;
10991;SDS011;5549;47.028;15.514;2022-08-19T09:19:50;1.80;;;1.70;;
10991;SDS011;5549;47.028;15.514;2022-08-19T09:22:22;1.70;;;1.67;;
10991;SDS011;5549;47.028;15.514;2022-08-19T09:24:54;1.80;;;1.70;;
10991;SDS011;5549;47.028;15.514;2022-08-19T09:27:26;1.87;;;1.77;;
10991;SDS011;5549;47.028;15.514;2022-08-19T09:29:55;2.50;;;1.97;;
10991;SDS011;5549;47.028;15.514;2022-08-19T09:32:24;3.17;;;2.27;;
10991;SDS011;5549;47.028;15.514;2022-08-19T09:34:52;2.37;;;2.20;;
10991;SDS011;5549;47.028;15.514;2022-08-19T09:37:23;4.20;;;2.10;;
10991;SDS011;5549;47.028;15.514;2022-08-19T09:39:51;2.80;;;2.10;;
10991;SDS011;5549;47.028;15.514;2022-08-19T09:42:23;2.00;;;1.90;;
10991;SDS011;5549;47.028;15.514;2022-08-19T09:44:51;2.37;;;2.17;;
10991;SDS011;5549;47.028;15.514;2022-08-19T09:47:21;2.50;;;1.90;;
10991;SDS011;5549;47.028;15.514;2022-08-19T09:49:48;2.30;;;2.10;;
10991;SDS011;5549;47.028;15.514;2022-08-19T09:52:16;4.70;;;2.20;;
10991;SDS011;5549;47.028;15.514;2022-08-19T09:54:46;2.33;;;2.03;;
10991;SDS011;5549;47.028;15.514;2022-08-19T09:57:15;1.90;;;1.80;;
10991;SDS011;5549;47.028;15.514;2022-08-19T09:59:44;4.67;;;2.20;;
10991;SDS011;5549;47.028;15.514;2022-08-19T10:02:12;2.23;;;1.70;;
10991;SDS011;5549;47.028;15.514;2022-08-19T10:04:43;2.03;;;1.93;;
10991;SDS011;5549;47.028;15.514;2022-08-19T10:07:29;2.37;;;1.80;;
10991;SDS011;5549;47.028;15.514;2022-08-19T10:09:59;3.17;;;2.10;;
10991;SDS011;5549;47.028;15.514;2022-08-19T10:12:32;2.30;;;2.00;;
10991;SDS011;5549;47.028;15.514;2022-08-19T10:15:01;2.27;;;1.80;;
10991;SDS011;5549;47.028;15.514;2022-08-19T10:17:29;2.17;;;2.00;;
10991;SDS011;5549;47.028;15.514;2022-08-19T10:20:00;3.37;;;2.20;;
10991;SDS011;5549;47.028;15.514;2022-08-19T10:22:31;3.63;;;2.63;;
10991;SDS011;5549;47.028;15.514;2022-08-19T10:25:01;2.40;;;2.20;;
10991;SDS011;5549;47.028;15.514;2022-08-19T10:27:29;3.47;;;2.40;;
10991;SDS011;5549;47.028;15.514;2022-08-19T10:29:58;2.60;;;2.30;;
10991;SDS011;5549;47.028;15.514;2022-08-19T10:32:26;2.00;;;1.90;;
10991;SDS011;5549;47.028;15.514;2022-08-19T10:34:57;2.13;;;1.90;;
10991;SDS011;5549;47.028;15.514;2022-08-19T10:37:25;2.20;;;2.00;;
10991;SDS011;5549;47.028;15.514;2022-08-19T10:39:53;2.50;;;2.13;;
10991;SDS011;5549;47.028;15.514;2022-08-19T10:42:23;2.90;;;1.90;;
10991;SDS011;5549;47.028;15.514;2022-08-19T10:44:51;2.17;;;1.97;;
10991;SDS011;5549;47.028;15.514;2022-08-19T10:47:20;1.83;;;1.60;;
10991;SDS011;5549;47.028;15.514;2022-08-19T10:49:48;2.00;;;1.57;;
10991;SDS011;5549;47.028;15.514;2022-08-19T10:52:33;3.43;;;1.67;;
10991;SDS011;5549;47.028;15.514;2022-08-19T10:55:04;1.87;;;1.77;;
10991;SDS011;5549;47.028;15.514;2022-08-19T10:57:53;2.13;;;1.93;;
10991;SDS011;5549;47.028;15.514;2022-08-19T11:00:23;1.63;;;1.53;;
10991;SDS011;5549;47.028;15.514;2022-08-19T11:02:55;2.03;;;1.93;;
10991;SDS011;5549;47.028;15.514;2022-08-19T11:05:25;2.63;;;1.70;;
10991;SDS011;5549;47.028;15.514;2022-08-19T11:07:52;2.20;;;1.40;;
10991;SDS011;5549;47.028;15.514;2022-08-19T11:10:20;1.70;;;1.60;;
10991;SDS011;5549;47.028;15.514;2022-08-19T11:12:48;1.73;;;1.60;;
10991;SDS011;5549;47.028;15.514;2022-08-19T11:15:20;1.70;;;1.60;;
10991;SDS011;5549;47.028;15.514;2022-08-19T11:17:48;2.10;;;1.90;;
10991;SDS011;5549;47.028;15.514;2022-08-19T11:20:23;2.67;;;1.70;;
10991;SDS011;5549;47.028;15.514;2022-08-19T11:22:53;1.53;;;1.43;;
10991;SDS011;5549;47.028;15.514;2022-08-19T11:25:20;1.50;;;1.40;;
10991;SDS011;5549;47.028;15.514;2022-08-19T11:27:48;1.73;;;1.40;;
10991;SDS011;5549;47.028;15.514;2022-08-19T11:30:19;1.50;;;1.40;;
10991;SDS011;5549;47.028;15.514;2022-08-19T11:32:50;2.00;;;1.30;;
10991;SDS011;5549;47.028;15.514;2022-08-19T11:35:18;2.97;;;1.70;;
10991;SDS011;5549;47.028;15.514;2022-08-19T11:37:48;1.60;;;1.50;;
10991;SDS011;5549;47.028;15.514;2022-08-19T11:40:17;1.77;;;1.30;;
10991;SDS011;5549;47.028;15.514;2022-08-19T11:42:50;1.67;;;1.57;;
10991;SDS011;5549;47.028;15.514;2022-08-19T11:45:22;1.77;;;1.57;;
10991;SDS011;5549;47.028;15.514;2022-08-19T11:47:52;5.30;;;1.40;;
10991;SDS011;5549;47.028;15.514;2022-08-19T11:50:20;2.20;;;1.30;;
10991;SDS011;5549;47.028;15.514;2022-08-19T11:52:50;1.73;;;1.30;;
10991;SDS011;5549;47.028;15.514;2022-08-19T11:55:21;2.00;;;1.77;;
10991;SDS011;5549;47.028;15.514;2022-08-19T11:57:48;1.27;;;1.27;;
10991;SDS011;5549;47.028;15.514;2022-08-19T12:00:18;2.73;;;1.70;;
10991;SDS011;5549;47.028;15.514;2022-08-19T12:02:48;1.97;;;1.50;;
10991;SDS011;5549;47.028;15.514;2022-08-19T12:05:18;1.67;;;1.57;;
10991;SDS011;5549;47.028;15.514;2022-08-19T12:07:50;2.00;;;1.50;;
10991;SDS011;5549;47.028;15.514;2022-08-19T12:10:22;1.97;;;1.67;;
10991;SDS011;5549;47.028;15.514;2022-08-19T12:12:52;1.40;;;1.30;;
10991;SDS011;5549;47.028;15.514;2022-08-19T12:15:20;1.63;;;1.50;;
10991;SDS011;5549;47.028;15.514;2022-08-19T12:17:47;1.70;;;1.60;;
10991;SDS011;5549;47.028;15.514;2022-08-19T12:20:17;1.73;;;1.63;;
10991;SDS011;5549;47.028;15.514;2022-08-19T12:22:47;3.83;;;1.60;;
10991;SDS011;5549;47.028;15.514;2022-08-19T12:25:17;1.93;;;1.37;;
10991;SDS011;5549;47.028;15.514;2022-08-19T12:27:45;1.60;;;1.50;;
10991;SDS011;5549;47.028;15.514;2022-08-19T12:30:13;1.33;;;1.13;;
10991;SDS011;5549;47.028;15.514;2022-08-19T12:32:43;5.37;;;2.17;;
10991;SDS011;5549;47.028;15.514;2022-08-19T12:35:13;1.77;;;1.53;;
10991;SDS011;5549;47.028;15.514;2022-08-19T12:37:43;1.60;;;1.50;;
10991;SDS011;5549;47.028;15.514;2022-08-19T12:40:12;1.40;;;1.33;;
10991;SDS011;5549;47.028;15.514;2022-08-19T12:42:43;1.23;;;1.13;;
10991;SDS011;5549;47.028;15.514;2022-08-19T12:45:12;1.20;;;1.20;;
10991;SDS011;5549;47.028;15.514;2022-08-19T12:47:45;1.37;;;1.23;;
10991;SDS011;5549;47.028;15.514;2022-08-19T12:50:13;2.20;;;1.37;;
10991;SDS011;5549;47.028;15.514;2022-08-19T12:52:42;2.97;;;1.50;;
10991;SDS011;5549;47.028;15.514;2022-08-19T12:55:13;1.40;;;1.40;;
10991;SDS011;5549;47.028;15.514;2022-08-19T12:57:45;1.77;;;1.67;;
10991;SDS011;5549;47.028;15.514;2022-08-19T13:00:17;3.43;;;1.73;;
10991;SDS011;5549;47.028;15.514;2022-08-19T13:02:48;2.07;;;1.43;;
10991;SDS011;5549;47.028;15.514;2022-08-19T13:05:27;1.80;;;1.70;;
10991;SDS011;5549;47.028;15.514;2022-08-19T13:07:59;4.37;;;1.70;;
10991;SDS011;5549;47.028;15.514;2022-08-19T13:10:29;1.93;;;1.47;;
10991;SDS011;5549;47.028;15.514;2022-08-19T13:13:01;3.20;;;1.60;;
10991;SDS011;5549;47.028;15.514;2022-08-19T13:15:32;6.33;;;1.50;;
10991;SDS011;5549;47.028;15.514;2022-08-19T13:18:03;2.57;;;1.50;;
10991;SDS011;5549;47.028;15.514;2022-08-19T13:20:34;1.20;;;1.10;;
10991;SDS011;5549;47.028;15.514;2022-08-19T13:23:03;2.03;;;1.43;;
10991;SDS011;5549;47.028;15.514;2022-08-19T13:25:34;3.10;;;1.53;;
10991;SDS011;5549;47.028;15.514;2022-08-19T13:28:04;1.70;;;1.30;;
10991;SDS011;5549;47.028;15.514;2022-08-19T13:30:33;2.17;;;1.20;;
10991;SDS011;5549;47.028;15.514;2022-08-19T13:33:18;1.63;;;1.40;;
10991;SDS011;5549;47.028;15.514;2022-08-19T13:35:47;1.70;;;1.60;;
10991;SDS011;5549;47.028;15.514;2022-08-19T13:38:24;1.67;;;1.20;;
10991;SDS011;5549;47.028;15.514;2022-08-19T13:41:02;1.80;;;1.37;;
10991;SDS011;5549;47.028;15.514;2022-08-19T13:43:33;3.00;;;1.70;;
10991;SDS011;5549;47.028;15.514;2022-08-19T13:46:08;3.00;;;1.40;;
10991;SDS011;5549;47.028;15.514;2022-08-19T13:48:39;3.47;;;1.80;;
10991;SDS011;5549;47.028;15.514;2022-08-19T13:51:07;2.17;;;1.47;;
10991;SDS011;5549;47.028;15.514;2022-08-19T13:53:36;3.63;;;1.70;;
10991;SDS011;5549;47.028;15.514;2022-08-19T13:56:08;3.83;;;1.80;;
10991;SDS011;5549;47.028;15.514;2022-08-19T13:58:41;2.00;;;1.03;;
10991;SDS011;5549;47.028;15.514;2022-08-19T14:01:09;1.40;;;1.30;;
10991;SDS011;5549;47.028;15.514;2022-08-19T14:03:39;1.83;;;1.73;;
10991;SDS011;5549;47.028;15.514;2022-08-19T14:06:08;2.33;;;1.50;;
10991;SDS011;5549;47.028;15.514;2022-08-19T14:08:35;1.77;;;1.47;;
10991;SDS011;5549;47.028;15.514;2022-08-19T14:11:08;3.43;;;1.83;;
10991;SDS011;5549;47.028;15.514;2022-08-19T14:13:36;2.53;;;1.30;;
10991;SDS011;5549;47.028;15.514;2022-08-19T14:16:07;2.67;;;1.37;;
10991;SDS011;5549;47.028;15.514;2022-08-19T14:18:36;2.47;;;1.50;;
10991;SDS011;5549;47.028;15.514;2022-08-19T14:21:05;2.10;;;1.57;;
10991;SDS011;5549;47.028;15.514;2022-08-19T14:23:34;3.60;;;1.40;;
10991;SDS011;5549;47.028;15.514;2022-08-19T14:26:06;1.70;;;1.60;;
10991;SDS011;5549;47.028;15.514;2022-08-19T14:28:40;3.33;;;1.70;;
10991;SDS011;5549;47.028;15.514;2022-08-19T14:31:18;1.33;;;1.33;;
10991;SDS011;5549;47.028;15.514;2022-08-19T14:33:49;1.57;;;1.40;;
10991;SDS011;5549;47.028;15.514;2022-08-19T14:36:20;1.60;;;1.50;;
10991;SDS011;5549;47.028;15.514;2022-08-19T14:38:48;2.20;;;1.57;;
10991;SDS011;5549;47.028;15.514;2022-08-19T14:41:17;2.63;;;1.97;;
10991;SDS011;5549;47.028;15.514;2022-08-19T14:43:51;4.47;;;1.70;;
10991;SDS011;5549;47.028;15.514;2022-08-19T14:46:21;1.73;;;1.47;;
10991;SDS011;5549;47.028;15.514;2022-08-19T14:48:52;1.63;;;1.20;;
10991;SDS011;5549;47.028;15.514;2022-08-19T14:51:20;1.60;;;1.50;;
10991;SDS011;5549;47.028;15.514;2022-08-19T14:53:50;1.70;;;1.57;;
10991;SDS011;5549;47.028;15.514;2022-08-19T14:56:20;2.67;;;1.70;;
10991;SDS011;5549;47.028;15.514;2022-08-19T14:58:52;2.77;;;1.30;;
10991;SDS011;5549;47.028;15.514;2022-08-19T15:01:21;3.33;;;1.47;;
10991;SDS011;5549;47.028;15.514;2022-08-19T15:03:49;3.00;;;1.50;;
10991;SDS011;5549;47.028;15.514;2022-08-19T15:06:19;1.50;;;1.40;;
10991;SDS011;5549;47.028;15.514;2022-08-19T15:08:50;1.63;;;1.27;;
10991;SDS011;5549;47.028;15.514;2022-08-19T15:11:25;1.27;;;1.10;;